createdAt,value
2023-05-25T00:01:38.665Z,3.43
2023-05-25T00:04:00.962Z,3.60
2023-05-25T00:06:22.298Z,3.47
2023-05-25T00:08:45.799Z,3.57
2023-05-25T00:11:06.865Z,3.60
2023-05-25T00:13:28.229Z,3.80
2023-05-25T00:15:49.602Z,3.47
2023-05-25T00:18:10.963Z,2.97
2023-05-25T00:20:33.225Z,3.50
2023-05-25T00:22:56.184Z,3.57
2023-05-25T00:25:20.895Z,3.37
2023-05-25T00:27:41.945Z,3.73
2023-05-25T00:30:03.383Z,3.60
2023-05-25T00:32:24.415Z,3.53
2023-05-25T00:34:46.297Z,3.50
2023-05-25T00:37:07.315Z,3.20
2023-05-25T00:39:28.579Z,3.50
2023-05-25T00:41:51.399Z,3.70
2023-05-25T00:44:14.828Z,3.60
2023-05-25T00:46:36.142Z,3.93
2023-05-25T00:48:57.470Z,4.10
2023-05-25T00:51:18.764Z,4.17
2023-05-25T00:53:39.955Z,3.77
2023-05-25T00:56:03.753Z,3.97
2023-05-25T00:58:28.536Z,4.03
2023-05-25T01:00:51.811Z,4.10
2023-05-25T01:03:17.836Z,3.97
2023-05-25T01:05:39.860Z,4.17
2023-05-25T01:08:03.366Z,4.27
2023-05-25T01:10:25.899Z,4.23
2023-05-25T01:12:47.034Z,4.50
2023-05-25T01:15:10.357Z,4.17
2023-05-25T01:17:32.273Z,4.70
2023-05-25T01:20:09.068Z,4.20
2023-05-25T01:22:38.424Z,4.43
2023-05-25T01:25:03.919Z,4.17
2023-05-25T01:27:28.197Z,4.13
2023-05-25T01:29:49.530Z,4.53
2023-05-25T01:32:12.167Z,4.40
2023-05-25T01:34:33.366Z,4.57
2023-05-25T01:36:54.820Z,4.67
2023-05-25T01:39:17.233Z,5.20
2023-05-25T01:41:38.181Z,4.70
2023-05-25T01:44:01.370Z,4.80
2023-05-25T01:46:28.006Z,5.10
2023-05-25T01:48:54.096Z,4.77
2023-05-25T01:51:18.772Z,5.30
2023-05-25T01:53:43.808Z,5.17
2023-05-25T01:56:09.496Z,4.40
2023-05-25T01:58:36.052Z,4.67
2023-05-25T02:00:58.878Z,4.87
2023-05-25T02:03:21.024Z,5.00
2023-05-25T02:05:42.666Z,4.67
2023-05-25T02:08:04.450Z,4.93
2023-05-25T02:10:26.174Z,4.43
2023-05-25T02:12:48.581Z,5.10
2023-05-25T02:15:09.942Z,4.73
2023-05-25T02:17:31.010Z,4.93
2023-05-25T02:19:53.183Z,5.40
2023-05-25T02:22:14.324Z,4.73
2023-05-25T02:24:35.504Z,5.30
2023-05-25T02:26:56.706Z,4.73
2023-05-25T02:29:19.317Z,5.07
2023-05-25T02:31:40.390Z,5.57
2023-05-25T02:34:01.781Z,5.60
2023-05-25T02:36:22.806Z,5.13
2023-05-25T02:38:44.166Z,5.30
2023-05-25T02:41:05.590Z,4.97
2023-05-25T02:43:26.921Z,5.03
2023-05-25T02:45:49.592Z,5.40
2023-05-25T02:48:11.289Z,4.70
2023-05-25T02:50:32.724Z,5.37
2023-05-25T02:52:54.150Z,5.00
2023-05-25T02:55:15.572Z,5.70
2023-05-25T02:57:37.834Z,5.73
2023-05-25T02:59:58.908Z,5.10
2023-05-25T03:02:25.571Z,5.90
2023-05-25T03:04:47.010Z,5.63
2023-05-25T03:07:08.536Z,5.20
2023-05-25T03:09:29.630Z,5.50
2023-05-25T03:11:50.911Z,5.57
2023-05-25T03:14:13.247Z,5.10
2023-05-25T03:16:36.491Z,5.67
2023-05-25T03:18:58.892Z,5.70
2023-05-25T03:21:20.111Z,5.23
2023-05-25T03:23:41.405Z,5.63
2023-05-25T03:26:02.512Z,6.03
2023-05-25T03:28:23.923Z,5.50
2023-05-25T03:30:45.052Z,5.30
2023-05-25T03:33:06.373Z,5.50
2023-05-25T03:35:28.979Z,6.07
2023-05-25T03:37:50.227Z,5.70
2023-05-25T03:40:12.729Z,5.50
2023-05-25T03:42:34.011Z,5.50
2023-05-25T03:44:55.187Z,5.37
2023-05-25T03:47:16.556Z,5.57
2023-05-25T03:49:37.951Z,5.30
2023-05-25T03:52:01.363Z,5.47
2023-05-25T03:54:22.538Z,5.17
2023-05-25T03:56:43.834Z,5.53
2023-05-25T03:59:05.233Z,5.40
2023-05-25T04:01:30.028Z,4.83
2023-05-25T04:03:51.505Z,5.53
2023-05-25T04:06:12.691Z,5.43
2023-05-25T04:08:35.366Z,5.20
2023-05-25T04:10:57.179Z,5.10
2023-05-25T04:13:18.467Z,5.23
2023-05-25T04:15:39.881Z,5.63
2023-05-25T04:18:03.023Z,5.30
2023-05-25T04:20:24.343Z,5.73
2023-05-25T04:22:45.476Z,5.40
2023-05-25T04:25:08.918Z,5.93
2023-05-25T04:27:29.965Z,5.80
2023-05-25T04:29:51.300Z,5.80
2023-05-25T04:32:14.575Z,5.73
2023-05-25T04:34:36.473Z,6.53
2023-05-25T04:36:57.997Z,6.23
2023-05-25T04:39:19.129Z,5.20
2023-05-25T04:41:43.047Z,5.70
2023-05-25T04:44:09.571Z,5.50
2023-05-25T04:46:31.916Z,5.40
2023-05-25T04:48:53.431Z,5.50
2023-05-25T04:51:14.708Z,5.80
2023-05-25T04:53:36.282Z,5.93
2023-05-25T04:55:57.738Z,5.47
2023-05-25T04:58:20.041Z,6.00
2023-05-25T05:00:41.951Z,5.40
2023-05-25T05:03:03.344Z,5.50
2023-05-25T05:05:24.583Z,5.27
2023-05-25T05:07:46.093Z,5.60
2023-05-25T05:10:08.015Z,5.80
2023-05-25T05:12:29.373Z,5.90
2023-05-25T05:14:51.879Z,6.43
2023-05-25T05:17:13.057Z,5.60
2023-05-25T05:19:34.331Z,6.17
2023-05-25T05:21:55.598Z,6.30
2023-05-25T05:24:17.141Z,5.87
2023-05-25T05:26:55.463Z,6.17
2023-05-25T05:29:19.855Z,7.00
2023-05-25T05:31:42.767Z,5.97
2023-05-25T05:34:04.138Z,6.70
2023-05-25T05:36:25.670Z,6.60
2023-05-25T05:38:46.941Z,6.07
2023-05-25T05:41:13.397Z,6.23
2023-05-25T05:43:34.396Z,6.37
2023-05-25T05:45:55.933Z,5.73
2023-05-25T05:48:18.481Z,6.23
2023-05-25T05:50:42.093Z,5.80
2023-05-25T05:53:03.772Z,5.47
2023-05-25T05:55:25.181Z,6.13
2023-05-25T05:57:46.407Z,5.53
2023-05-25T06:00:09.099Z,6.30
2023-05-25T06:02:30.270Z,6.47
2023-05-25T06:04:53.089Z,6.00
2023-05-25T06:07:14.305Z,6.57
2023-05-25T06:09:35.575Z,6.13
2023-05-25T06:11:56.951Z,6.50
2023-05-25T06:14:18.092Z,6.43
2023-05-25T06:16:39.804Z,6.57
2023-05-25T06:19:01.380Z,6.90
2023-05-25T06:21:23.908Z,6.50
2023-05-25T06:23:45.131Z,6.93
2023-05-25T06:26:06.696Z,6.70
2023-05-25T06:28:27.796Z,6.80
2023-05-25T06:30:49.319Z,7.30
2023-05-25T06:33:10.724Z,6.53
2023-05-25T06:35:31.958Z,6.80
2023-05-25T06:37:54.761Z,6.73
2023-05-25T06:40:16.349Z,6.47
2023-05-25T06:42:37.845Z,6.30
2023-05-25T06:44:58.800Z,6.87
2023-05-25T06:47:20.195Z,5.97
2023-05-25T06:49:41.383Z,6.70
2023-05-25T06:52:02.718Z,6.27
2023-05-25T06:54:25.202Z,6.90
2023-05-25T06:56:46.665Z,6.43
2023-05-25T06:59:08.048Z,6.93
2023-05-25T07:01:29.336Z,6.20
2023-05-25T07:03:50.674Z,6.37
2023-05-25T07:06:12.913Z,6.27
2023-05-25T07:08:34.231Z,6.50
2023-05-25T07:10:56.956Z,5.90
2023-05-25T07:13:18.378Z,8.00
2023-05-25T07:15:39.731Z,6.73
2023-05-25T07:18:01.190Z,6.90
2023-05-25T07:20:22.753Z,6.70
2023-05-25T07:22:44.638Z,7.03
2023-05-25T07:25:06.337Z,6.50
2023-05-25T07:27:29.062Z,6.27
2023-05-25T07:29:50.261Z,6.40
2023-05-25T07:32:11.778Z,6.63
2023-05-25T07:34:32.905Z,6.40
2023-05-25T07:36:54.321Z,5.73
2023-05-25T07:39:15.799Z,6.63
2023-05-25T07:41:36.876Z,6.73
2023-05-25T07:43:59.730Z,6.23
2023-05-25T07:46:25.161Z,6.60
2023-05-25T07:48:46.451Z,6.97
2023-05-25T07:51:07.717Z,6.97
2023-05-25T07:53:29.055Z,6.80
2023-05-25T07:55:50.202Z,6.77
2023-05-25T07:58:11.404Z,7.10
2023-05-25T08:00:34.079Z,6.90
2023-05-25T08:02:55.315Z,7.20
2023-05-25T08:05:16.947Z,6.20
2023-05-25T08:07:39.564Z,7.03
2023-05-25T08:10:02.355Z,6.70
2023-05-25T08:12:38.506Z,7.40
2023-05-25T08:15:04.702Z,7.07
2023-05-25T08:17:27.499Z,7.00
2023-05-25T08:19:49.223Z,7.10
2023-05-25T08:22:11.063Z,7.70
2023-05-25T08:24:32.485Z,7.37
2023-05-25T08:26:55.071Z,7.50
2023-05-25T08:29:16.663Z,8.10
2023-05-25T08:31:37.961Z,7.30
2023-05-25T08:34:01.121Z,7.63
2023-05-25T08:36:22.881Z,7.20
2023-05-25T08:38:44.326Z,7.50
2023-05-25T08:41:06.428Z,8.07
2023-05-25T08:43:27.342Z,7.40
2023-05-25T08:45:48.630Z,7.00
2023-05-25T08:48:12.477Z,7.67
2023-05-25T08:50:35.935Z,6.93
2023-05-25T08:52:58.554Z,8.00
2023-05-25T08:55:22.268Z,7.50
2023-05-25T08:57:47.114Z,7.60
2023-05-25T09:00:10.942Z,7.73
2023-05-25T09:02:34.924Z,7.27
2023-05-25T09:04:56.197Z,7.47
2023-05-25T09:07:18.904Z,7.43
2023-05-25T09:09:40.921Z,7.30
2023-05-25T09:12:02.326Z,6.97
2023-05-25T09:14:23.776Z,7.93
2023-05-25T09:16:45.168Z,7.10
2023-05-25T09:19:06.576Z,7.77
2023-05-25T09:21:27.848Z,7.43
2023-05-25T09:23:51.005Z,7.33
2023-05-25T09:26:12.207Z,6.90
2023-05-25T09:28:33.381Z,7.70
2023-05-25T09:30:54.745Z,6.87
2023-05-25T09:33:17.623Z,7.17
2023-05-25T09:35:39.319Z,7.13
2023-05-25T09:38:00.632Z,6.57
2023-05-25T09:40:23.284Z,7.50
2023-05-25T09:42:44.264Z,7.27
2023-05-25T09:45:06.356Z,6.90
2023-05-25T09:47:27.658Z,7.03
2023-05-25T09:49:50.560Z,6.60
2023-05-25T09:52:13.257Z,7.13
2023-05-25T09:54:34.526Z,7.87
2023-05-25T09:56:57.071Z,6.70
2023-05-25T09:59:18.307Z,7.40
2023-05-25T10:01:41.931Z,7.07
2023-05-25T10:04:05.484Z,7.60
2023-05-25T10:06:27.119Z,6.37
2023-05-25T10:08:48.891Z,7.70
2023-05-25T10:11:10.484Z,7.30
2023-05-25T10:13:33.520Z,7.07
2023-05-25T10:15:55.196Z,7.00
2023-05-25T10:18:16.964Z,7.33
2023-05-25T10:20:38.980Z,7.20
2023-05-25T10:23:02.019Z,7.03
2023-05-25T10:25:26.945Z,7.23
2023-05-25T10:27:48.877Z,6.47
2023-05-25T10:30:12.329Z,6.73
2023-05-25T10:32:33.951Z,6.27
2023-05-25T10:34:56.725Z,6.67
2023-05-25T10:37:19.570Z,6.17
2023-05-25T10:39:41.859Z,6.70
2023-05-25T10:42:03.319Z,5.70
2023-05-25T10:44:25.062Z,6.23
2023-05-25T10:46:48.509Z,6.97
2023-05-25T10:49:11.213Z,5.87
2023-05-25T10:51:39.092Z,5.90
2023-05-25T10:54:01.432Z,6.60
2023-05-25T10:56:22.353Z,6.27
2023-05-25T10:58:44.867Z,6.60
2023-05-25T11:01:08.250Z,5.40
2023-05-25T11:03:48.700Z,5.60
2023-05-25T11:06:11.555Z,5.93
2023-05-25T11:08:49.333Z,6.70
2023-05-25T11:11:10.963Z,6.30
2023-05-25T11:13:40.414Z,5.97
2023-05-25T11:16:09.074Z,7.17
2023-05-25T11:18:38.151Z,6.60
2023-05-25T11:21:14.643Z,6.67
2023-05-25T11:23:40.194Z,6.20
2023-05-25T11:26:06.614Z,6.50
2023-05-25T11:28:27.738Z,7.20
2023-05-25T11:30:49.666Z,6.73
2023-05-25T11:33:11.144Z,6.83
2023-05-25T11:35:37.332Z,6.27
2023-05-25T11:38:00.481Z,7.23
2023-05-25T11:40:23.632Z,6.70
2023-05-25T11:42:48.336Z,6.73
2023-05-25T11:45:12.002Z,6.77
2023-05-25T11:47:34.645Z,6.33
2023-05-25T11:49:57.338Z,6.13
2023-05-25T11:52:19.065Z,6.10
2023-05-25T11:54:42.061Z,6.87
2023-05-25T11:57:03.807Z,6.30
2023-05-25T11:59:27.297Z,6.10
2023-05-25T12:01:56.737Z,6.50
2023-05-25T12:04:18.294Z,5.73
2023-05-25T12:06:40.592Z,6.40
2023-05-25T12:09:03.140Z,6.43
2023-05-25T12:11:33.279Z,5.90
2023-05-25T12:13:54.503Z,5.93
2023-05-25T12:16:15.553Z,5.60
2023-05-25T12:18:36.988Z,6.00
2023-05-25T12:20:58.082Z,5.67
2023-05-25T12:23:19.699Z,6.00
2023-05-25T12:25:50.330Z,5.97
2023-05-25T12:28:14.999Z,6.00
2023-05-25T12:30:36.699Z,6.63
2023-05-25T12:33:02.554Z,6.47
2023-05-25T12:35:25.249Z,6.13
2023-05-25T12:37:46.661Z,5.93
2023-05-25T12:40:17.968Z,5.90
2023-05-25T12:42:41.922Z,5.47
2023-05-25T12:45:08.585Z,5.77
2023-05-25T12:47:30.651Z,5.50
2023-05-25T12:49:52.221Z,5.87
2023-05-25T12:52:32.188Z,5.20
2023-05-25T12:54:53.703Z,5.00
2023-05-25T12:57:15.978Z,5.80
2023-05-25T12:59:38.109Z,5.70
2023-05-25T13:02:00.576Z,6.00
2023-05-25T13:04:21.996Z,5.60
2023-05-25T13:06:43.177Z,5.30
2023-05-25T13:09:04.851Z,5.00
2023-05-25T13:11:26.061Z,4.90
2023-05-25T13:13:47.160Z,5.00
2023-05-25T13:16:08.388Z,4.90
2023-05-25T13:18:31.400Z,5.03
2023-05-25T13:20:55.861Z,5.23
2023-05-25T13:23:18.373Z,5.20
2023-05-25T13:25:40.194Z,5.37
2023-05-25T13:28:02.860Z,5.10
2023-05-25T13:30:24.012Z,4.93
2023-05-25T13:32:47.472Z,5.30
2023-05-25T13:35:18.637Z,4.90
2023-05-25T13:37:39.863Z,4.93
2023-05-25T13:40:01.296Z,5.03
2023-05-25T13:42:22.533Z,5.13
2023-05-25T13:44:43.606Z,5.07
2023-05-25T13:47:05.057Z,5.50
2023-05-25T13:49:26.572Z,5.50
2023-05-25T13:51:49.022Z,5.77
2023-05-25T13:54:12.634Z,5.90
2023-05-25T13:56:34.156Z,5.17
2023-05-25T13:58:55.671Z,4.77
2023-05-25T14:01:20.130Z,4.90
2023-05-25T14:03:41.290Z,4.93
2023-05-25T14:06:02.498Z,5.10
2023-05-25T14:08:25.207Z,5.60
2023-05-25T14:10:46.608Z,5.47
2023-05-25T14:13:07.625Z,5.53
2023-05-25T14:15:28.826Z,5.17
2023-05-25T14:17:50.103Z,5.50
2023-05-25T14:20:16.365Z,5.07
2023-05-25T14:22:37.736Z,5.73
2023-05-25T14:25:00.896Z,5.60
2023-05-25T14:27:22.197Z,5.40
2023-05-25T14:29:43.545Z,4.73
2023-05-25T14:32:05.090Z,5.53
2023-05-25T14:34:26.199Z,5.10
2023-05-25T14:36:47.467Z,5.30
2023-05-25T14:39:10.080Z,6.10
2023-05-25T14:41:35.353Z,5.37
2023-05-25T14:43:59.251Z,5.70
2023-05-25T14:46:20.333Z,5.67
2023-05-25T14:48:41.988Z,5.60
2023-05-25T14:51:04.009Z,5.53
2023-05-25T14:53:25.352Z,5.30
2023-05-25T14:55:46.606Z,5.70
2023-05-25T14:58:09.240Z,5.50
2023-05-25T15:00:32.028Z,4.77
2023-05-25T15:02:52.965Z,5.40
2023-05-25T15:05:14.013Z,5.20
2023-05-25T15:07:35.243Z,5.00
2023-05-25T15:09:56.526Z,5.00
2023-05-25T15:12:17.683Z,5.20
2023-05-25T15:14:42.194Z,5.60
2023-05-25T15:17:03.577Z,5.07
2023-05-25T15:19:24.878Z,5.27
2023-05-25T15:21:46.431Z,5.17
2023-05-25T15:24:07.553Z,5.63
2023-05-25T15:26:28.831Z,5.23
2023-05-25T15:28:50.227Z,5.43
2023-05-25T15:31:13.153Z,5.07
2023-05-25T15:33:50.116Z,5.50
2023-05-25T15:36:13.201Z,5.37
2023-05-25T15:38:34.515Z,5.33
2023-05-25T15:40:55.849Z,5.53
2023-05-25T15:43:17.034Z,5.40
2023-05-25T15:45:38.250Z,4.47
2023-05-25T15:48:01.180Z,5.53
2023-05-25T15:50:22.628Z,5.07
2023-05-25T15:52:44.071Z,5.00
2023-05-25T15:55:05.971Z,5.00
2023-05-25T15:57:27.202Z,5.20
2023-05-25T15:59:49.005Z,4.80
2023-05-25T16:02:10.149Z,4.70
2023-05-25T16:04:32.811Z,4.83
2023-05-25T16:06:53.961Z,5.07
2023-05-25T16:09:15.215Z,5.20
2023-05-25T16:11:36.492Z,5.63
2023-05-25T16:13:57.628Z,5.40
2023-05-25T16:16:19.376Z,4.63
2023-05-25T16:18:40.682Z,4.97
2023-05-25T16:21:03.205Z,4.90
2023-05-25T16:23:24.548Z,4.87
2023-05-25T16:25:46.283Z,4.70
2023-05-25T16:28:07.678Z,4.60
2023-05-25T16:30:29.250Z,4.77
2023-05-25T16:32:50.725Z,4.63
2023-05-25T16:35:13.202Z,4.70
2023-05-25T16:37:35.936Z,4.70
2023-05-25T16:39:57.399Z,4.83
2023-05-25T16:42:18.759Z,5.10
2023-05-25T16:44:39.860Z,5.17
2023-05-25T16:47:01.203Z,4.70
2023-05-25T16:49:22.475Z,4.57
2023-05-25T16:51:43.637Z,4.90
2023-05-25T16:54:06.988Z,4.63
2023-05-25T16:56:27.915Z,4.50
2023-05-25T16:58:49.255Z,5.10
2023-05-25T17:01:11.427Z,4.50
2023-05-25T17:03:32.987Z,4.90
2023-05-25T17:05:54.804Z,4.83
2023-05-25T17:08:16.174Z,4.73
2023-05-25T17:10:38.875Z,4.80
2023-05-25T17:13:00.407Z,4.47
2023-05-25T17:15:21.610Z,5.17
2023-05-25T17:17:43.072Z,5.20
2023-05-25T17:20:05.225Z,5.40
2023-05-25T17:22:26.698Z,4.70
2023-05-25T17:24:47.793Z,5.67
2023-05-25T17:27:10.423Z,5.53
2023-05-25T17:29:31.997Z,5.00
2023-05-25T17:31:53.857Z,4.87
2023-05-25T17:34:15.080Z,4.93
2023-05-25T17:36:37.270Z,5.00
2023-05-25T17:38:58.343Z,4.50
2023-05-25T17:41:19.963Z,4.63
2023-05-25T17:43:42.360Z,4.97
2023-05-25T17:46:03.735Z,4.70
2023-05-25T17:48:25.013Z,4.60
2023-05-25T17:50:46.442Z,4.67
2023-05-25T17:53:08.142Z,5.03
2023-05-25T17:55:29.474Z,4.70
2023-05-25T17:57:50.830Z,4.80
2023-05-25T18:00:14.596Z,5.03
2023-05-25T18:02:36.890Z,4.70
2023-05-25T18:04:58.191Z,4.83
2023-05-25T18:07:21.192Z,5.57
2023-05-25T18:09:42.527Z,5.20
2023-05-25T18:12:04.300Z,5.70
2023-05-25T18:14:25.726Z,5.27
2023-05-25T18:16:48.326Z,5.33
2023-05-25T18:19:10.583Z,5.37
2023-05-25T18:21:33.440Z,6.20
2023-05-25T18:23:54.887Z,5.63
2023-05-25T18:26:16.398Z,5.60
2023-05-25T18:28:37.824Z,5.30
2023-05-25T18:30:59.151Z,5.83
2023-05-25T18:33:22.398Z,5.70
2023-05-25T18:35:44.219Z,5.63
2023-05-25T18:38:06.921Z,5.47
2023-05-25T18:40:28.139Z,5.73
2023-05-25T18:42:49.362Z,5.80
2023-05-25T18:45:11.064Z,5.87
2023-05-25T18:47:32.455Z,5.33
2023-05-25T18:49:55.452Z,5.50
2023-05-25T18:52:17.131Z,5.53
2023-05-25T18:54:39.486Z,6.03
2023-05-25T18:57:00.390Z,5.27
2023-05-25T18:59:21.839Z,6.13
2023-05-25T19:01:42.748Z,5.17
2023-05-25T19:04:04.271Z,5.83
2023-05-25T19:06:27.564Z,6.10
2023-05-25T19:08:49.655Z,5.50
2023-05-25T19:11:11.005Z,5.83
2023-05-25T19:13:32.386Z,6.33
2023-05-25T19:15:53.763Z,5.93
2023-05-25T19:18:15.115Z,5.37
2023-05-25T19:20:36.838Z,5.57
2023-05-25T19:22:59.476Z,5.80
2023-05-25T19:25:20.818Z,5.40
2023-05-25T19:27:42.266Z,6.10
2023-05-25T19:30:03.866Z,5.77
2023-05-25T19:32:24.957Z,5.47
2023-05-25T19:34:46.423Z,5.37
2023-05-25T19:37:11.570Z,5.50
2023-05-25T19:39:34.457Z,5.40
2023-05-25T19:41:55.922Z,5.53
2023-05-25T19:44:17.246Z,5.37
2023-05-25T19:46:39.915Z,5.70
2023-05-25T19:49:01.218Z,5.57
2023-05-25T19:51:22.332Z,6.00
2023-05-25T19:53:43.599Z,5.47
2023-05-25T19:56:07.160Z,5.60
2023-05-25T19:58:28.272Z,5.53
2023-05-25T20:00:49.641Z,5.50
2023-05-25T20:03:11.297Z,5.63
2023-05-25T20:05:32.906Z,5.43
2023-05-25T20:07:55.895Z,5.90
2023-05-25T20:10:17.512Z,5.17
2023-05-25T20:12:39.989Z,5.53
2023-05-25T20:15:01.349Z,5.70
2023-05-25T20:17:22.786Z,5.30
2023-05-25T20:19:44.229Z,5.20
2023-05-25T20:22:08.041Z,5.10
2023-05-25T20:24:29.254Z,5.33
2023-05-25T20:26:50.960Z,5.10
2023-05-25T20:29:13.525Z,5.40
2023-05-25T20:31:36.818Z,5.87
2023-05-25T20:33:58.059Z,5.30
2023-05-25T20:36:19.663Z,5.40
2023-05-25T20:38:41.081Z,5.33
2023-05-25T20:41:02.306Z,5.80
2023-05-25T20:43:23.426Z,4.97
2023-05-25T20:45:46.668Z,5.40
2023-05-25T20:48:08.583Z,5.53
2023-05-25T20:50:30.278Z,5.87
2023-05-25T20:52:51.899Z,6.07
2023-05-25T20:55:12.898Z,5.20
2023-05-25T20:57:34.298Z,5.43
2023-05-25T20:59:59.669Z,5.43
2023-05-25T21:02:22.512Z,6.13
2023-05-25T21:04:43.860Z,5.67
2023-05-25T21:07:05.635Z,5.87
2023-05-25T21:09:27.202Z,5.77
2023-05-25T21:11:48.751Z,5.97
2023-05-25T21:14:10.083Z,5.63
2023-05-25T21:16:31.577Z,5.30
2023-05-25T21:18:54.359Z,5.60
2023-05-25T21:21:16.199Z,6.10
2023-05-25T21:23:37.750Z,6.77
2023-05-25T21:26:00.746Z,6.33
2023-05-25T21:28:22.270Z,5.93
2023-05-25T21:30:43.490Z,6.63
2023-05-25T21:33:05.283Z,6.10
2023-05-25T21:35:27.918Z,6.40
2023-05-25T21:37:50.926Z,5.80
2023-05-25T21:40:12.686Z,6.00
2023-05-25T21:42:33.769Z,6.20
2023-05-25T21:44:55.635Z,5.83
2023-05-25T21:47:17.388Z,6.23
2023-05-25T21:49:39.082Z,7.13
2023-05-25T21:52:01.923Z,5.73
2023-05-25T21:54:24.008Z,5.83
2023-05-25T21:56:46.268Z,5.90
2023-05-25T21:59:07.389Z,6.20
2023-05-25T22:01:28.719Z,6.37
2023-05-25T22:03:50.205Z,6.53
2023-05-25T22:06:12.259Z,6.20
2023-05-25T22:08:35.742Z,6.13
2023-05-25T22:10:57.412Z,6.20
2023-05-25T22:13:19.264Z,6.47
2023-05-25T22:15:40.772Z,6.10
2023-05-25T22:18:02.509Z,6.37
2023-05-25T22:20:23.958Z,5.93
2023-05-25T22:22:45.926Z,6.50
2023-05-25T22:25:09.301Z,6.23
2023-05-25T22:27:31.002Z,6.60
2023-05-25T22:29:52.171Z,6.43
2023-05-25T22:32:13.482Z,6.50
2023-05-25T22:34:35.020Z,6.80
2023-05-25T22:36:56.959Z,6.50
2023-05-25T22:39:18.269Z,6.53
2023-05-25T22:41:40.993Z,7.10
2023-05-25T22:44:02.335Z,6.77
2023-05-25T22:46:23.849Z,6.90
2023-05-25T22:48:44.980Z,7.07
2023-05-25T22:51:06.205Z,6.60
2023-05-25T22:53:27.491Z,7.10
2023-05-25T22:55:49.254Z,6.77
2023-05-25T22:58:12.260Z,6.90
2023-05-25T23:00:33.495Z,7.10
2023-05-25T23:02:55.819Z,7.03
2023-05-25T23:05:17.306Z,7.33
2023-05-25T23:07:38.650Z,7.43
2023-05-25T23:10:00.289Z,7.33
2023-05-25T23:12:21.410Z,6.77
2023-05-25T23:14:45.273Z,6.90
2023-05-25T23:17:06.977Z,7.00
2023-05-25T23:19:27.967Z,6.93
2023-05-25T23:21:50.348Z,6.83
2023-05-25T23:24:13.508Z,6.40
2023-05-25T23:26:35.082Z,7.17
2023-05-25T23:28:56.383Z,7.30
2023-05-25T23:31:19.981Z,7.10
2023-05-25T23:33:41.755Z,7.13
2023-05-25T23:36:02.848Z,6.70
2023-05-25T23:38:23.998Z,7.20
2023-05-25T23:40:45.602Z,6.57
2023-05-25T23:43:07.309Z,7.27
2023-05-25T23:45:28.302Z,7.30
2023-05-25T23:47:51.439Z,7.00
2023-05-25T23:50:12.587Z,7.03
2023-05-25T23:52:33.929Z,7.10
2023-05-25T23:54:56.550Z,7.77
2023-05-25T23:57:17.500Z,7.67
2023-05-25T23:59:38.936Z,7.40
